createdAt,value
2023-04-27T00:00:31.572Z,37.94
2023-04-27T00:01:31.669Z,38.16
2023-04-27T00:02:31.770Z,38.29
2023-04-27T00:03:31.900Z,38.10
2023-04-27T00:04:32.087Z,38.10
2023-04-27T00:05:31.963Z,37.98
2023-04-27T00:06:31.848Z,38.30
2023-04-27T00:07:31.899Z,38.35
2023-04-27T00:08:31.889Z,38.37
2023-04-27T00:09:31.949Z,37.95
2023-04-27T00:10:31.949Z,37.90
2023-04-27T00:11:31.985Z,37.97
2023-04-27T00:12:32.008Z,37.90
2023-04-27T00:13:31.973Z,38.05
2023-04-27T00:14:32.002Z,37.86
2023-04-27T00:15:32.003Z,38.00
2023-04-27T00:16:32.014Z,37.99
2023-04-27T00:17:32.021Z,38.06
2023-04-27T00:18:31.991Z,38.12
2023-04-27T00:19:32.001Z,38.02
2023-04-27T00:20:32.005Z,37.98
2023-04-27T00:21:32.037Z,38.03
2023-04-27T00:22:32.051Z,38.05
2023-04-27T00:23:32.049Z,37.90
2023-04-27T00:24:32.051Z,38.35
2023-04-27T00:25:32.102Z,38.61
2023-04-27T00:26:32.140Z,38.38
2023-04-27T00:27:32.401Z,38.43
2023-04-27T00:28:32.194Z,38.73
2023-04-27T00:29:32.197Z,38.39
2023-04-27T00:30:32.240Z,38.49
2023-04-27T00:31:32.302Z,38.60
2023-04-27T00:32:32.351Z,38.61
2023-04-27T00:33:32.296Z,39.00
2023-04-27T00:34:32.335Z,38.47
2023-04-27T00:35:32.413Z,38.59
2023-04-27T00:36:32.427Z,38.39
2023-04-27T00:37:32.432Z,38.23
2023-04-27T00:38:32.433Z,38.08
2023-04-27T00:39:32.468Z,38.22
2023-04-27T00:40:32.443Z,38.33
2023-04-27T00:41:32.535Z,38.34
2023-04-27T00:42:32.559Z,38.37
2023-04-27T00:43:32.592Z,38.54
2023-04-27T00:44:32.618Z,38.84
2023-04-27T00:45:32.717Z,38.77
2023-04-27T00:46:32.762Z,38.85
2023-04-27T00:47:32.793Z,38.63
2023-04-27T00:48:32.699Z,38.51
2023-04-27T00:49:32.720Z,38.58
2023-04-27T00:50:32.743Z,38.91
2023-04-27T00:51:32.769Z,38.63
2023-04-27T00:52:32.873Z,38.70
2023-04-27T00:53:32.891Z,38.83
2023-04-27T00:54:32.888Z,38.99
2023-04-27T00:55:32.937Z,39.20
2023-04-27T00:56:32.975Z,39.39
2023-04-27T00:57:33.011Z,39.00
2023-04-27T00:58:33.069Z,38.84
2023-04-27T00:59:33.045Z,38.58
2023-04-27T01:00:33.141Z,38.83
2023-04-27T01:01:33.261Z,39.00
2023-04-27T01:02:33.392Z,39.04
2023-04-27T01:03:33.361Z,39.02
2023-04-27T01:04:33.482Z,39.20
2023-04-27T01:05:33.329Z,38.73
2023-04-27T01:06:33.482Z,38.96
2023-04-27T01:07:33.393Z,39.46
2023-04-27T01:08:33.411Z,39.20
2023-04-27T01:09:33.430Z,38.95
2023-04-27T01:10:33.437Z,38.99
2023-04-27T01:11:33.477Z,39.20
2023-04-27T01:12:33.525Z,39.31
2023-04-27T01:13:33.542Z,39.00
2023-04-27T01:14:33.531Z,38.98
2023-04-27T01:15:33.550Z,38.85
2023-04-27T01:16:33.546Z,38.85
2023-04-27T01:17:33.542Z,39.04
2023-04-27T01:18:33.526Z,38.80
2023-04-27T01:19:33.559Z,39.32
2023-04-27T01:20:33.544Z,39.51
2023-04-27T01:21:33.586Z,39.27
2023-04-27T01:22:33.592Z,39.57
2023-04-27T01:23:33.603Z,39.62
2023-04-27T01:24:33.653Z,39.66
2023-04-27T01:25:33.615Z,39.06
2023-04-27T01:26:33.612Z,39.14
2023-04-27T01:27:33.627Z,39.22
2023-04-27T01:28:33.626Z,39.44
2023-04-27T01:29:33.650Z,39.65
2023-04-27T01:30:33.714Z,39.23
2023-04-27T01:31:33.744Z,38.98
2023-04-27T01:32:33.798Z,39.09
2023-04-27T01:33:33.795Z,39.48
2023-04-27T01:34:33.844Z,39.22
2023-04-27T01:35:33.932Z,39.22
2023-04-27T01:36:33.863Z,39.01
2023-04-27T01:37:33.935Z,39.23
2023-04-27T01:38:33.909Z,39.63
2023-04-27T01:39:33.982Z,39.60
2023-04-27T01:40:34.002Z,39.31
2023-04-27T01:41:34.050Z,39.65
2023-04-27T01:42:34.112Z,39.59
2023-04-27T01:43:34.160Z,39.05
2023-04-27T01:44:34.218Z,39.30
2023-04-27T01:45:34.276Z,39.16
2023-04-27T01:46:34.417Z,38.99
2023-04-27T01:47:34.452Z,39.14
2023-04-27T01:48:34.584Z,39.42
2023-04-27T01:49:34.492Z,39.10
2023-04-27T01:50:34.613Z,39.11
2023-04-27T01:51:34.667Z,39.29
2023-04-27T01:52:34.768Z,39.42
2023-04-27T01:53:34.802Z,40.34
2023-04-27T01:54:34.840Z,39.40
2023-04-27T01:55:34.906Z,38.95
2023-04-27T01:56:34.965Z,38.89
2023-04-27T01:57:35.010Z,38.93
2023-04-27T01:58:35.019Z,39.18
2023-04-27T01:59:35.080Z,39.98
2023-04-27T02:00:35.102Z,39.98
2023-04-27T02:01:35.232Z,39.60
2023-04-27T02:02:35.355Z,39.45
2023-04-27T02:03:35.411Z,39.14
2023-04-27T02:04:35.335Z,39.04
2023-04-27T02:05:35.299Z,38.84
2023-04-27T02:06:35.293Z,38.99
2023-04-27T02:07:35.305Z,39.77
2023-04-27T02:08:35.330Z,39.56
2023-04-27T02:09:35.355Z,39.17
2023-04-27T02:10:35.334Z,39.15
2023-04-27T02:11:35.360Z,39.26
2023-04-27T02:12:35.385Z,39.41
2023-04-27T02:13:35.448Z,39.81
2023-04-27T02:14:35.501Z,39.66
2023-04-27T02:15:35.554Z,39.93
2023-04-27T02:16:35.725Z,39.87
2023-04-27T02:17:35.637Z,39.57
2023-04-27T02:18:35.691Z,39.80
2023-04-27T02:19:35.746Z,39.87
2023-04-27T02:20:35.749Z,39.88
2023-04-27T02:21:35.740Z,40.00
2023-04-27T02:22:35.758Z,40.10
2023-04-27T02:23:35.771Z,40.01
2023-04-27T02:24:35.779Z,40.14
2023-04-27T02:25:35.777Z,40.78
2023-04-27T02:26:35.797Z,40.39
2023-04-27T02:27:35.804Z,40.50
2023-04-27T02:28:35.853Z,40.65
2023-04-27T02:29:35.873Z,40.48
2023-04-27T02:30:35.878Z,40.51
2023-04-27T02:31:35.980Z,40.75
2023-04-27T02:32:35.976Z,40.62
2023-04-27T02:33:35.989Z,40.75
2023-04-27T02:34:36.032Z,40.58
2023-04-27T02:35:36.067Z,40.65
2023-04-27T02:36:36.075Z,40.43
2023-04-27T02:37:36.134Z,40.25
2023-04-27T02:38:36.122Z,40.41
2023-04-27T02:39:36.182Z,40.35
2023-04-27T02:40:36.188Z,40.43
2023-04-27T02:41:36.187Z,40.60
2023-04-27T02:42:36.292Z,40.52
2023-04-27T02:43:36.199Z,40.94
2023-04-27T02:44:36.204Z,40.67
2023-04-27T02:45:36.219Z,40.55
2023-04-27T02:46:36.320Z,40.42
2023-04-27T02:47:36.342Z,40.18
2023-04-27T02:48:36.248Z,40.03
2023-04-27T02:49:38.035Z,40.46
2023-04-27T02:50:36.258Z,40.94
2023-04-27T02:51:36.267Z,40.81
2023-04-27T02:52:36.328Z,40.99
2023-04-27T02:53:36.277Z,40.62
2023-04-27T02:54:36.321Z,40.93
2023-04-27T02:55:36.334Z,40.84
2023-04-27T02:56:36.286Z,41.04
2023-04-27T02:57:36.316Z,41.05
2023-04-27T02:58:36.361Z,41.03
2023-04-27T02:59:36.363Z,40.81
2023-04-27T03:00:36.441Z,40.95
2023-04-27T03:01:36.576Z,41.03
2023-04-27T03:02:36.755Z,40.98
2023-04-27T03:03:36.735Z,41.96
2023-04-27T03:04:36.766Z,41.53
2023-04-27T03:05:36.635Z,41.02
2023-04-27T03:06:36.663Z,40.83
2023-04-27T03:07:36.676Z,41.03
2023-04-27T03:08:36.623Z,40.86
2023-04-27T03:09:36.645Z,41.14
2023-04-27T03:10:36.648Z,41.30
2023-04-27T03:11:37.423Z,41.07
2023-04-27T03:12:36.738Z,40.93
2023-04-27T03:13:36.735Z,40.78
2023-04-27T03:14:36.737Z,40.82
2023-04-27T03:15:36.728Z,40.94
2023-04-27T03:16:36.783Z,41.21
2023-04-27T03:17:36.874Z,40.84
2023-04-27T03:18:36.794Z,41.05
2023-04-27T03:19:36.778Z,41.45
2023-04-27T03:20:36.775Z,40.79
2023-04-27T03:21:36.778Z,40.85
2023-04-27T03:22:36.838Z,40.60
2023-04-27T03:23:36.782Z,40.36
2023-04-27T03:24:36.795Z,40.52
2023-04-27T03:25:36.824Z,40.78
2023-04-27T03:26:36.815Z,41.00
2023-04-27T03:27:36.816Z,41.36
2023-04-27T03:28:36.868Z,41.41
2023-04-27T03:29:36.943Z,41.82
2023-04-27T03:30:36.989Z,41.80
2023-04-27T03:31:37.074Z,41.55
2023-04-27T03:32:37.568Z,42.34
2023-04-27T03:33:37.122Z,42.40
2023-04-27T03:34:37.114Z,42.03
2023-04-27T03:35:37.133Z,42.04
2023-04-27T03:36:37.088Z,42.33
2023-04-27T03:37:37.144Z,42.03
2023-04-27T03:38:37.111Z,41.91
2023-04-27T03:39:37.100Z,42.18
2023-04-27T03:40:37.119Z,42.64
2023-04-27T03:41:37.120Z,42.75
2023-04-27T03:42:37.143Z,43.17
2023-04-27T03:43:37.129Z,42.98
2023-04-27T03:44:37.130Z,43.26
2023-04-27T03:45:37.236Z,43.42
2023-04-27T03:46:37.150Z,43.70
2023-04-27T03:47:37.179Z,43.52
2023-04-27T03:48:37.132Z,43.66
2023-04-27T03:49:37.158Z,43.56
2023-04-27T03:50:37.193Z,43.91
2023-04-27T03:51:37.123Z,44.14
2023-04-27T03:52:37.150Z,44.00
2023-04-27T03:53:37.140Z,44.03
2023-04-27T03:54:37.213Z,44.19
2023-04-27T03:55:37.207Z,44.17
2023-04-27T03:56:37.205Z,43.94
2023-04-27T03:57:37.286Z,44.16
2023-04-27T03:58:37.284Z,44.31
2023-04-27T03:59:37.287Z,44.56
2023-04-27T04:00:37.321Z,44.66
2023-04-27T04:01:37.463Z,44.95
2023-04-27T04:02:37.468Z,45.16
2023-04-27T04:03:37.504Z,45.21
2023-04-27T04:04:37.579Z,45.19
2023-04-27T04:05:37.485Z,45.33
2023-04-27T04:06:37.546Z,45.36
2023-04-27T04:07:37.616Z,45.57
2023-04-27T04:08:37.610Z,45.19
2023-04-27T04:09:45.345Z,45.16
2023-04-27T04:10:37.668Z,45.48
2023-04-27T04:11:37.663Z,45.27
2023-04-27T04:12:37.716Z,45.46
2023-04-27T04:13:37.639Z,45.25
2023-04-27T04:14:37.646Z,45.56
2023-04-27T04:15:37.690Z,44.91
2023-04-27T04:16:37.668Z,44.83
2023-04-27T04:17:37.693Z,44.86
2023-04-27T04:18:37.655Z,45.00
2023-04-27T04:19:37.631Z,44.81
2023-04-27T04:20:37.618Z,45.44
2023-04-27T04:21:37.578Z,45.64
2023-04-27T04:22:37.650Z,45.78
2023-04-27T04:23:37.596Z,46.57
2023-04-27T04:24:37.562Z,46.24
2023-04-27T04:25:37.599Z,46.13
2023-04-27T04:26:37.591Z,46.75
2023-04-27T04:27:37.573Z,47.03
2023-04-27T04:28:37.590Z,46.85
2023-04-27T04:29:37.567Z,46.41
2023-04-27T04:30:37.639Z,46.45
2023-04-27T04:31:37.700Z,46.50
2023-04-27T04:32:37.845Z,47.11
2023-04-27T04:33:37.727Z,46.57
2023-04-27T04:34:37.745Z,47.39
2023-04-27T04:35:37.807Z,47.76
2023-04-27T04:36:37.801Z,47.34
2023-04-27T04:37:37.992Z,48.14
2023-04-27T04:38:37.945Z,48.00
2023-04-27T04:39:37.989Z,47.49
2023-04-27T04:40:38.119Z,46.91
2023-04-27T04:41:38.054Z,46.69
2023-04-27T04:42:38.179Z,46.95
2023-04-27T04:43:38.170Z,47.18
2023-04-27T04:44:38.113Z,46.85
2023-04-27T04:45:38.148Z,47.74
2023-04-27T04:46:38.216Z,47.95
2023-04-27T04:47:38.235Z,47.90
2023-04-27T04:48:38.277Z,47.99
2023-04-27T04:49:38.333Z,48.01
2023-04-27T04:50:38.382Z,48.00
2023-04-27T04:51:38.450Z,47.97
2023-04-27T04:52:38.489Z,48.66
2023-04-27T04:53:38.522Z,48.36
2023-04-27T04:54:38.598Z,48.03
2023-04-27T04:55:38.617Z,48.19
2023-04-27T04:56:38.626Z,47.70
2023-04-27T04:57:38.752Z,47.48
2023-04-27T04:59:58.442Z,46.75
2023-04-27T05:02:25.743Z,46.71
2023-04-27T05:03:17.996Z,46.34
2023-04-27T05:04:18.016Z,46.30
2023-04-27T05:05:17.860Z,47.11
2023-04-27T05:06:17.868Z,46.78
2023-04-27T05:07:20.871Z,46.81
2023-04-27T05:08:18.790Z,47.19
2023-04-27T05:09:17.780Z,46.90
2023-04-27T05:10:17.805Z,47.45
2023-04-27T05:11:17.796Z,47.53
2023-04-27T05:12:17.853Z,47.74
2023-04-27T05:13:17.811Z,47.97
2023-04-27T05:14:17.835Z,47.63
2023-04-27T05:15:17.783Z,46.43
2023-04-27T05:16:17.849Z,46.23
2023-04-27T05:17:17.783Z,46.47
2023-04-27T05:18:17.761Z,46.90
2023-04-27T05:19:17.749Z,46.34
2023-04-27T05:20:17.845Z,46.40
2023-04-27T05:21:17.791Z,45.65
2023-04-27T05:22:17.868Z,46.08
2023-04-27T05:23:17.920Z,45.83
2023-04-27T05:24:17.933Z,45.65
2023-04-27T05:25:18.012Z,45.62
2023-04-27T05:26:18.021Z,45.76
2023-04-27T05:27:18.020Z,45.71
2023-04-27T05:28:18.056Z,45.68
2023-04-27T05:29:18.125Z,45.68
2023-04-27T05:30:18.019Z,46.51
2023-04-27T05:31:18.091Z,45.96
2023-04-27T05:32:18.068Z,46.33
2023-04-27T05:33:18.133Z,46.25
2023-04-27T05:34:18.028Z,46.54
2023-04-27T05:35:18.090Z,46.42
2023-04-27T05:36:18.066Z,45.67
2023-04-27T05:37:18.132Z,45.72
2023-04-27T05:38:18.605Z,45.93
2023-04-27T05:39:18.175Z,45.61
2023-04-27T05:40:18.204Z,45.67
2023-04-27T05:41:18.202Z,46.20
2023-04-27T05:42:18.280Z,46.38
2023-04-27T05:43:18.624Z,46.70
2023-04-27T05:44:18.324Z,46.49
2023-04-27T05:46:45.605Z,47.16
2023-04-27T05:47:38.104Z,47.77
2023-04-27T05:48:37.941Z,47.77
2023-04-27T05:49:37.964Z,47.65
2023-04-27T05:50:37.992Z,47.86
2023-04-27T05:51:37.923Z,48.24
2023-04-27T05:52:38.385Z,48.62
2023-04-27T05:53:38.022Z,48.50
2023-04-27T05:54:37.927Z,48.63
2023-04-27T05:55:37.913Z,48.07
2023-04-27T05:56:37.941Z,47.71
2023-04-27T05:57:38.077Z,47.60
2023-04-27T05:58:38.181Z,47.91
2023-04-27T05:59:37.883Z,48.72
2023-04-27T06:00:37.943Z,48.50
2023-04-27T06:01:37.898Z,49.10
2023-04-27T06:02:38.137Z,48.18
2023-04-27T06:03:38.372Z,48.34
2023-04-27T06:04:37.986Z,48.26
2023-04-27T06:05:38.043Z,48.49
2023-04-27T06:06:37.923Z,48.36
2023-04-27T06:07:38.012Z,48.63
2023-04-27T06:08:38.010Z,47.97
2023-04-27T06:09:38.064Z,48.79
2023-04-27T06:10:38.026Z,47.93
2023-04-27T06:11:38.108Z,48.22
2023-04-27T06:12:38.254Z,48.04
2023-04-27T06:13:38.219Z,48.06
2023-04-27T06:14:38.194Z,48.78
2023-04-27T06:15:38.308Z,48.48
2023-04-27T06:16:38.192Z,48.19
2023-04-27T06:17:38.314Z,48.54
2023-04-27T06:18:38.300Z,48.82
2023-04-27T06:19:38.353Z,48.97
2023-04-27T06:20:38.345Z,48.89
2023-04-27T06:21:38.410Z,48.86
2023-04-27T06:22:38.405Z,48.64
2023-04-27T06:23:38.945Z,48.45
2023-04-27T06:24:38.442Z,48.13
2023-04-27T06:25:38.422Z,48.01
2023-04-27T06:26:38.490Z,48.23
2023-04-27T06:27:39.246Z,48.03
2023-04-27T06:28:38.639Z,47.80
2023-04-27T06:29:38.682Z,48.07
2023-04-27T06:30:39.636Z,48.42
2023-04-27T06:31:38.817Z,47.92
2023-04-27T06:32:38.709Z,48.09
2023-04-27T06:33:39.206Z,47.56
2023-04-27T06:34:39.219Z,47.98
2023-04-27T06:35:38.734Z,48.73
2023-04-27T06:36:38.714Z,48.76
2023-04-27T06:37:38.840Z,48.71
2023-04-27T06:38:39.365Z,48.51
2023-04-27T06:39:38.845Z,47.51
2023-04-27T06:40:38.733Z,48.16
2023-04-27T06:41:38.860Z,48.93
2023-04-27T06:42:38.787Z,48.37
2023-04-27T06:43:39.308Z,48.50
2023-04-27T06:44:39.033Z,48.37
2023-04-27T06:45:38.896Z,48.59
2023-04-27T06:46:39.268Z,48.63
2023-04-27T06:47:39.229Z,48.40
2023-04-27T06:48:38.990Z,48.32
2023-04-27T06:49:38.992Z,48.27
2023-04-27T06:50:39.011Z,46.27
2023-04-27T06:51:39.063Z,46.39
2023-04-27T06:52:39.499Z,46.67
2023-04-27T06:53:39.214Z,47.09
2023-04-27T06:54:39.154Z,47.52
2023-04-27T06:55:40.419Z,48.00
2023-04-27T06:56:39.154Z,47.82
2023-04-27T06:57:39.166Z,47.81
2023-04-27T06:58:39.186Z,47.95
2023-04-27T06:59:39.122Z,48.40
2023-04-27T07:00:39.300Z,47.67
2023-04-27T07:01:39.238Z,47.50
2023-04-27T07:02:39.164Z,48.35
2023-04-27T07:03:40.000Z,47.94
2023-04-27T07:04:39.514Z,48.65
2023-04-27T07:05:39.974Z,48.09
2023-04-27T07:06:39.736Z,48.49
2023-04-27T07:07:39.054Z,47.65
2023-04-27T07:08:39.580Z,47.43
2023-04-27T07:09:48.001Z,47.85
2023-04-27T07:10:39.080Z,48.24
2023-04-27T07:11:39.390Z,47.45
2023-04-27T07:12:39.048Z,46.91
2023-04-27T07:13:39.241Z,46.85
2023-04-27T07:14:39.817Z,47.19
2023-04-27T07:15:39.091Z,47.12
2023-04-27T07:16:39.095Z,47.71
2023-04-27T07:17:39.050Z,48.19
2023-04-27T07:18:39.269Z,47.70
2023-04-27T07:19:38.997Z,46.73
2023-04-27T07:20:38.987Z,46.80
2023-04-27T07:21:38.938Z,47.51
2023-04-27T07:22:38.987Z,47.98
2023-04-27T07:23:39.009Z,47.93
2023-04-27T07:24:39.390Z,48.12
2023-04-27T07:25:38.913Z,47.60
2023-04-27T07:26:39.265Z,46.65
2023-04-27T07:27:38.885Z,46.90
2023-04-27T07:28:39.356Z,46.90
2023-04-27T07:29:38.950Z,47.13
2023-04-27T07:30:38.906Z,45.88
2023-04-27T07:31:39.451Z,45.97
2023-04-27T07:32:38.953Z,46.60
2023-04-27T07:33:39.724Z,46.98
2023-04-27T07:34:52.042Z,46.70
2023-04-27T07:35:39.883Z,46.78
2023-04-27T07:36:38.877Z,47.34
2023-04-27T07:37:38.879Z,47.16
2023-04-27T07:38:38.981Z,46.14
2023-04-27T07:39:39.109Z,46.52
2023-04-27T07:40:39.310Z,46.34
2023-04-27T07:41:38.918Z,47.01
2023-04-27T07:42:38.913Z,47.11
2023-04-27T07:43:38.838Z,46.11
2023-04-27T07:44:38.892Z,45.60
2023-04-27T07:45:38.900Z,45.73
2023-04-27T07:46:38.757Z,45.46
2023-04-27T07:47:38.830Z,46.21
2023-04-27T07:48:38.869Z,46.61
2023-04-27T07:49:39.192Z,47.19
2023-04-27T07:50:38.778Z,46.97
2023-04-27T07:51:38.731Z,46.75
2023-04-27T07:52:39.151Z,46.78
2023-04-27T07:53:38.753Z,46.97
2023-04-27T07:54:38.807Z,47.19
2023-04-27T07:55:38.770Z,47.33
2023-04-27T07:56:38.764Z,47.20
2023-04-27T07:57:38.808Z,47.07
2023-04-27T07:58:38.818Z,47.13
2023-04-27T07:59:38.822Z,46.63
2023-04-27T08:00:38.687Z,47.40
2023-04-27T08:01:38.733Z,46.68
2023-04-27T08:02:39.018Z,46.71
2023-04-27T08:03:39.059Z,46.61
2023-04-27T08:04:39.214Z,46.04
2023-04-27T08:05:39.221Z,47.06
2023-04-27T08:06:39.311Z,47.39
2023-04-27T08:07:44.140Z,46.69
2023-04-27T08:08:40.123Z,47.01
2023-04-27T08:09:39.211Z,47.11
2023-04-27T08:10:39.004Z,45.94
2023-04-27T08:11:39.008Z,45.74
2023-04-27T08:12:39.043Z,45.57
2023-04-27T08:13:39.871Z,46.00
2023-04-27T08:14:39.028Z,45.69
2023-04-27T08:15:39.028Z,45.90
2023-04-27T08:16:46.650Z,45.95
2023-04-27T08:17:39.111Z,45.58
2023-04-27T08:18:38.956Z,45.36
2023-04-27T08:19:39.045Z,44.86
2023-04-27T08:20:38.950Z,45.05
2023-04-27T08:21:38.961Z,44.31
2023-04-27T08:22:38.889Z,44.54
2023-04-27T08:23:39.605Z,44.59
2023-04-27T08:24:38.979Z,44.18
2023-04-27T08:25:39.580Z,44.88
2023-04-27T08:26:38.921Z,45.48
2023-04-27T08:27:38.912Z,45.42
2023-04-27T08:28:38.952Z,44.58
2023-04-27T08:29:38.929Z,44.14
2023-04-27T08:30:38.929Z,43.78
2023-04-27T08:31:38.964Z,43.64
2023-04-27T08:32:38.939Z,44.16
2023-04-27T08:33:38.987Z,43.40
2023-04-27T08:34:39.167Z,43.76
2023-04-27T08:35:38.860Z,44.67
2023-04-27T08:36:38.906Z,44.03
2023-04-27T08:37:38.876Z,43.48
2023-04-27T08:38:38.872Z,42.83
2023-04-27T08:39:39.531Z,43.81
2023-04-27T08:40:39.007Z,42.49
2023-04-27T08:41:39.016Z,42.30
2023-04-27T08:42:39.014Z,43.63
2023-04-27T08:43:39.108Z,43.99
2023-04-27T08:44:39.118Z,42.88
2023-04-27T08:45:39.233Z,41.46
2023-04-27T08:46:39.309Z,41.62
2023-04-27T08:47:43.341Z,42.39
2023-04-27T08:48:39.358Z,42.45
2023-04-27T08:49:39.263Z,42.65
2023-04-27T08:50:40.192Z,41.79
2023-04-27T08:51:39.218Z,41.04
2023-04-27T08:52:39.400Z,41.30
2023-04-27T08:53:39.294Z,42.14
2023-04-27T08:54:39.494Z,42.91
2023-04-27T08:55:39.159Z,42.35
2023-04-27T08:56:39.170Z,40.30
2023-04-27T08:57:39.125Z,40.03
2023-04-27T08:58:39.134Z,40.21
2023-04-27T08:59:39.353Z,41.52
2023-04-27T09:00:39.146Z,41.49
2023-04-27T09:01:39.209Z,41.31
2023-04-27T09:02:39.310Z,39.96
2023-04-27T09:03:39.852Z,41.15
2023-04-27T09:04:39.263Z,41.39
2023-04-27T09:05:44.104Z,41.18
2023-04-27T09:06:40.169Z,41.74
2023-04-27T09:07:46.713Z,41.92
2023-04-27T09:08:39.051Z,41.18
2023-04-27T09:09:39.046Z,40.67
2023-04-27T09:10:39.226Z,40.38
2023-04-27T09:11:39.070Z,40.63
2023-04-27T09:12:39.012Z,41.96
2023-04-27T09:13:39.068Z,40.10
2023-04-27T09:14:39.038Z,40.35
2023-04-27T09:15:38.991Z,41.46
2023-04-27T09:16:39.220Z,41.68
2023-04-27T09:17:39.261Z,41.40
2023-04-27T09:18:38.991Z,40.77
2023-04-27T09:19:39.058Z,41.24
2023-04-27T09:20:38.977Z,40.14
2023-04-27T09:21:38.980Z,41.22
2023-04-27T09:22:38.965Z,40.16
2023-04-27T09:23:38.979Z,40.00
2023-04-27T09:24:39.087Z,39.80
2023-04-27T09:25:39.020Z,40.80
2023-04-27T09:26:38.908Z,39.62
2023-04-27T09:27:38.969Z,40.56
2023-04-27T09:28:39.082Z,41.17
2023-04-27T09:29:39.139Z,40.75
2023-04-27T09:30:39.257Z,38.38
2023-04-27T09:31:39.223Z,39.60
2023-04-27T09:32:39.178Z,40.09
2023-04-27T09:33:39.184Z,39.20
2023-04-27T09:34:39.264Z,36.67
2023-04-27T09:35:39.798Z,37.14
2023-04-27T09:36:39.270Z,38.03
2023-04-27T09:37:41.256Z,36.71
2023-04-27T09:38:39.396Z,37.77
2023-04-27T09:39:39.401Z,37.70
2023-04-27T09:41:06.763Z,36.40
2023-04-27T09:42:05.834Z,36.07
2023-04-27T09:43:05.747Z,36.99
2023-04-27T09:44:05.885Z,36.93
2023-04-27T09:45:06.176Z,36.49
2023-04-27T09:46:06.100Z,36.68
2023-04-27T09:47:05.765Z,37.25
2023-04-27T09:48:06.192Z,35.82
2023-04-27T09:49:05.698Z,37.62
2023-04-27T09:50:05.699Z,36.57
2023-04-27T09:51:06.184Z,37.52
2023-04-27T09:52:05.645Z,38.37
2023-04-27T09:53:05.634Z,35.21
2023-04-27T09:54:05.728Z,35.58
2023-04-27T09:55:05.617Z,34.66
2023-04-27T09:56:05.943Z,34.56
2023-04-27T09:57:05.631Z,34.63
2023-04-27T09:58:05.594Z,36.26
2023-04-27T09:59:05.661Z,34.99
2023-04-27T10:00:06.075Z,34.59
2023-04-27T10:01:06.055Z,35.11
2023-04-27T10:02:16.984Z,35.14
2023-04-27T10:03:06.647Z,36.43
2023-04-27T10:04:05.819Z,35.56
2023-04-27T10:05:05.647Z,37.18
2023-04-27T10:06:05.730Z,33.89
2023-04-27T10:07:05.587Z,34.46
2023-04-27T10:08:05.530Z,33.46
2023-04-27T10:09:05.626Z,34.26
2023-04-27T10:10:05.944Z,35.21
2023-04-27T10:11:06.007Z,34.19
2023-04-27T10:12:05.859Z,33.70
2023-04-27T10:13:05.543Z,33.13
2023-04-27T10:14:06.065Z,33.48
2023-04-27T10:15:05.583Z,34.44
2023-04-27T10:16:06.073Z,34.02
2023-04-27T10:17:06.617Z,33.78
2023-04-27T10:18:05.841Z,34.68
2023-04-27T10:19:05.793Z,32.27
2023-04-27T10:20:05.957Z,35.55
2023-04-27T10:21:05.921Z,35.17
2023-04-27T10:22:06.007Z,32.86
2023-04-27T10:23:05.909Z,33.49
2023-04-27T10:24:06.054Z,34.15
2023-04-27T10:25:05.951Z,32.80
2023-04-27T10:26:06.032Z,33.01
2023-04-27T10:27:05.938Z,32.95
2023-04-27T10:28:06.152Z,32.33
2023-04-27T10:29:06.027Z,33.92
2023-04-27T10:30:06.480Z,32.85
2023-04-27T10:31:06.244Z,31.83
2023-04-27T10:32:06.146Z,32.81
2023-04-27T10:33:06.347Z,33.67
2023-04-27T10:34:06.208Z,32.11
2023-04-27T10:35:06.243Z,33.29
2023-04-27T10:36:06.538Z,31.61
2023-04-27T10:37:06.641Z,31.58
2023-04-27T10:38:06.457Z,31.23
2023-04-27T10:39:06.464Z,34.10
2023-04-27T10:40:06.465Z,33.53
2023-04-27T10:41:06.515Z,32.17
2023-04-27T10:42:06.379Z,32.09
2023-04-27T10:43:06.557Z,31.98
2023-04-27T10:44:06.489Z,32.32
2023-04-27T10:45:06.488Z,31.52
2023-04-27T10:46:06.993Z,31.39
2023-04-27T10:47:06.512Z,31.48
2023-04-27T10:48:06.576Z,32.12
2023-04-27T10:49:06.625Z,33.53
2023-04-27T10:50:06.578Z,33.08
2023-04-27T10:51:06.610Z,33.45
2023-04-27T10:52:06.547Z,31.90
2023-04-27T10:53:06.574Z,33.89
2023-04-27T10:54:06.667Z,31.62
2023-04-27T10:55:06.654Z,32.79
2023-04-27T10:56:06.902Z,33.78
2023-04-27T10:57:06.880Z,33.49
2023-04-27T10:58:06.803Z,32.31
2023-04-27T10:59:06.884Z,31.96
2023-04-27T11:00:06.906Z,31.35
2023-04-27T11:01:07.022Z,31.26
2023-04-27T11:02:06.980Z,31.71
2023-04-27T11:03:07.100Z,31.24
2023-04-27T11:04:07.091Z,32.48
2023-04-27T11:05:07.161Z,30.46
2023-04-27T11:06:07.186Z,30.28
2023-04-27T11:07:07.793Z,30.78
2023-04-27T11:08:07.243Z,31.07
2023-04-27T11:09:07.432Z,30.73
2023-04-27T11:10:07.318Z,32.03
2023-04-27T11:11:08.320Z,31.25
2023-04-27T11:12:07.429Z,30.26
2023-04-27T11:13:07.383Z,30.46
2023-04-27T11:14:07.457Z,30.96
2023-04-27T11:15:07.435Z,30.44
2023-04-27T11:16:07.549Z,30.55
2023-04-27T11:17:07.539Z,30.13
2023-04-27T11:18:07.583Z,31.83
2023-04-27T11:19:07.592Z,30.37
2023-04-27T11:20:07.562Z,31.61
2023-04-27T11:21:08.038Z,31.20
2023-04-27T11:22:07.947Z,31.13
2023-04-27T11:23:07.689Z,31.53
2023-04-27T11:24:07.803Z,30.59
2023-04-27T11:25:07.841Z,30.63
2023-04-27T11:26:08.834Z,31.55
2023-04-27T11:27:07.982Z,31.85
2023-04-27T11:28:07.870Z,31.88
2023-04-27T11:29:07.832Z,32.20
2023-04-27T11:30:08.521Z,31.30
2023-04-27T11:31:08.916Z,31.48
2023-04-27T11:32:10.118Z,31.47
2023-04-27T11:33:08.074Z,31.15
2023-04-27T11:34:08.430Z,30.71
2023-04-27T11:35:08.191Z,30.78
2023-04-27T11:36:07.931Z,30.75
2023-04-27T11:37:17.523Z,31.26
2023-04-27T11:38:09.343Z,29.53
2023-04-27T11:39:08.001Z,29.57
2023-04-27T11:40:07.975Z,30.60
2023-04-27T11:41:08.252Z,30.58
2023-04-27T11:42:07.979Z,31.48
2023-04-27T11:43:08.004Z,31.15
2023-04-27T11:44:08.325Z,31.88
2023-04-27T11:45:08.443Z,31.82
2023-04-27T11:46:08.668Z,32.76
2023-04-27T11:47:08.464Z,31.02
2023-04-27T11:48:08.013Z,31.02
2023-04-27T11:49:07.921Z,29.66
2023-04-27T11:50:07.911Z,29.39
2023-04-27T11:51:07.971Z,29.38
2023-04-27T11:52:07.876Z,29.30
2023-04-27T11:53:07.852Z,29.23
2023-04-27T11:54:07.939Z,28.23
2023-04-27T11:55:07.875Z,28.17
2023-04-27T11:56:07.915Z,29.35
2023-04-27T11:57:07.976Z,31.86
2023-04-27T11:58:07.862Z,28.97
2023-04-27T11:59:07.979Z,29.72
2023-04-27T12:00:08.109Z,29.08
2023-04-27T12:01:07.836Z,28.96
2023-04-27T12:02:07.952Z,28.76
2023-04-27T12:03:08.032Z,27.43
2023-04-27T12:04:08.061Z,30.23
2023-04-27T12:05:08.099Z,27.63
2023-04-27T12:06:27.749Z,29.23
2023-04-27T12:07:09.369Z,27.87
2023-04-27T12:08:07.868Z,28.19
2023-04-27T12:09:07.863Z,28.68
2023-04-27T12:10:07.871Z,26.90
2023-04-27T12:11:07.865Z,26.63
2023-04-27T12:12:09.123Z,27.34
2023-04-27T12:13:07.805Z,26.17
2023-04-27T12:14:07.808Z,27.79
2023-04-27T12:15:07.832Z,26.66
2023-04-27T12:16:07.799Z,28.88
2023-04-27T12:17:08.325Z,27.74
2023-04-27T12:18:08.126Z,27.33
2023-04-27T12:19:07.826Z,27.47
2023-04-27T12:20:07.914Z,27.48
2023-04-27T12:21:08.445Z,27.76
2023-04-27T12:22:07.947Z,25.81
2023-04-27T12:23:07.952Z,26.03
2023-04-27T12:24:07.960Z,26.09
2023-04-27T12:25:07.977Z,26.10
2023-04-27T12:26:08.076Z,26.75
2023-04-27T12:27:08.063Z,27.57
2023-04-27T12:28:08.144Z,26.40
2023-04-27T12:29:08.417Z,27.42
2023-04-27T12:30:08.215Z,27.58
2023-04-27T12:31:08.251Z,27.59
2023-04-27T12:32:08.184Z,28.07
2023-04-27T12:33:08.280Z,29.10
2023-04-27T12:34:08.230Z,28.89
2023-04-27T12:35:08.308Z,27.85
2023-04-27T12:36:08.349Z,27.72
2023-04-27T12:37:08.353Z,28.11
2023-04-27T12:38:08.650Z,28.32
2023-04-27T12:39:08.390Z,28.64
2023-04-27T12:40:08.469Z,28.57
2023-04-27T12:41:08.476Z,29.12
2023-04-27T12:42:08.501Z,29.05
2023-04-27T12:43:08.544Z,29.04
2023-04-27T12:44:08.583Z,27.66
2023-04-27T12:45:08.530Z,27.77
2023-04-27T12:46:08.566Z,27.42
2023-04-27T12:47:08.640Z,29.82
2023-04-27T12:48:08.657Z,29.36
2023-04-27T12:49:08.728Z,29.09
2023-04-27T12:50:08.725Z,29.79
2023-04-27T12:51:08.764Z,28.09
2023-04-27T12:52:09.804Z,28.73
2023-04-27T12:53:08.788Z,31.06
2023-04-27T12:54:08.872Z,29.23
2023-04-27T12:55:18.004Z,28.63
2023-04-27T12:56:09.905Z,29.21
2023-04-27T12:57:08.888Z,29.09